sensor_id;sensor_type;location;lat;lon;timestamp;P1;durP1;ratioP1;P2;durP2;ratioP2
13941;SDS011;7043;51.630;7.254;2023-07-31T00:00:15;2.00;;;1.67;;
13941;SDS011;7043;51.630;7.254;2023-07-31T00:02:41;2.27;;;1.87;;
13941;SDS011;7043;51.630;7.254;2023-07-31T00:05:08;2.30;;;1.87;;
13941;SDS011;7043;51.630;7.254;2023-07-31T00:07:34;2.60;;;2.00;;
13941;SDS011;7043;51.630;7.254;2023-07-31T00:10:00;2.30;;;1.80;;
13941;SDS011;7043;51.630;7.254;2023-07-31T00:12:27;2.90;;;2.00;;
13941;SDS011;7043;51.630;7.254;2023-07-31T00:14:53;2.50;;;1.47;;
13941;SDS011;7043;51.630;7.254;2023-07-31T00:17:19;2.33;;;1.93;;
13941;SDS011;7043;51.630;7.254;2023-07-31T00:19:45;2.10;;;1.90;;
13941;SDS011;7043;51.630;7.254;2023-07-31T00:22:14;3.30;;;1.70;;
13941;SDS011;7043;51.630;7.254;2023-07-31T00:24:40;2.10;;;1.90;;
13941;SDS011;7043;51.630;7.254;2023-07-31T00:27:06;2.40;;;2.10;;
13941;SDS011;7043;51.630;7.254;2023-07-31T00:29:32;1.93;;;1.80;;
13941;SDS011;7043;51.630;7.254;2023-07-31T00:31:58;2.90;;;2.40;;
13941;SDS011;7043;51.630;7.254;2023-07-31T00:34:23;3.00;;;2.70;;
13941;SDS011;7043;51.630;7.254;2023-07-31T00:36:49;3.27;;;3.00;;
13941;SDS011;7043;51.630;7.254;2023-07-31T00:39:15;3.77;;;3.47;;
13941;SDS011;7043;51.630;7.254;2023-07-31T00:41:41;4.43;;;3.90;;
13941;SDS011;7043;51.630;7.254;2023-07-31T00:44:07;6.20;;;4.37;;
13941;SDS011;7043;51.630;7.254;2023-07-31T00:46:33;4.80;;;4.30;;
13941;SDS011;7043;51.630;7.254;2023-07-31T00:48:59;5.77;;;5.10;;
13941;SDS011;7043;51.630;7.254;2023-07-31T00:51:25;7.20;;;5.70;;
13941;SDS011;7043;51.630;7.254;2023-07-31T00:53:51;9.20;;;6.57;;
13941;SDS011;7043;51.630;7.254;2023-07-31T00:56:19;10.40;;;6.87;;
13941;SDS011;7043;51.630;7.254;2023-07-31T00:58:45;9.83;;;7.33;;
13941;SDS011;7043;51.630;7.254;2023-07-31T01:01:11;12.13;;;8.13;;
13941;SDS011;7043;51.630;7.254;2023-07-31T01:03:37;15.10;;;9.57;;
13941;SDS011;7043;51.630;7.254;2023-07-31T01:11:15;16.37;;;11.83;;
13941;SDS011;7043;51.630;7.254;2023-07-31T01:13:42;19.43;;;12.37;;
13941;SDS011;7043;51.630;7.254;2023-07-31T01:16:08;14.07;;;10.47;;
13941;SDS011;7043;51.630;7.254;2023-07-31T01:18:34;17.90;;;11.60;;
13941;SDS011;7043;51.630;7.254;2023-07-31T01:21:06;21.73;;;13.27;;
13941;SDS011;7043;51.630;7.254;2023-07-31T01:23:49;18.83;;;12.20;;
13941;SDS011;7043;51.630;7.254;2023-07-31T01:26:19;21.63;;;11.70;;
13941;SDS011;7043;51.630;7.254;2023-07-31T01:31:14;20.53;;;10.97;;
13941;SDS011;7043;51.630;7.254;2023-07-31T01:33:42;19.97;;;10.60;;
13941;SDS011;7043;51.630;7.254;2023-07-31T01:36:08;14.70;;;9.10;;
13941;SDS011;7043;51.630;7.254;2023-07-31T01:38:34;19.33;;;8.97;;
13941;SDS011;7043;51.630;7.254;2023-07-31T01:41:00;14.77;;;8.40;;
13941;SDS011;7043;51.630;7.254;2023-07-31T01:43:26;13.33;;;8.00;;
13941;SDS011;7043;51.630;7.254;2023-07-31T01:45:52;15.43;;;7.80;;
13941;SDS011;7043;51.630;7.254;2023-07-31T01:48:18;13.30;;;7.27;;
13941;SDS011;7043;51.630;7.254;2023-07-31T01:50:44;11.30;;;6.07;;
13941;SDS011;7043;51.630;7.254;2023-07-31T01:53:10;18.07;;;7.50;;
13941;SDS011;7043;51.630;7.254;2023-07-31T01:55:37;16.67;;;7.87;;
13941;SDS011;7043;51.630;7.254;2023-07-31T01:58:03;14.63;;;7.90;;
13941;SDS011;7043;51.630;7.254;2023-07-31T02:00:29;11.20;;;7.17;;
13941;SDS011;7043;51.630;7.254;2023-07-31T02:02:55;14.77;;;7.77;;
13941;SDS011;7043;51.630;7.254;2023-07-31T02:05:21;15.53;;;6.67;;
13941;SDS011;7043;51.630;7.254;2023-07-31T02:07:47;13.33;;;6.93;;
13941;SDS011;7043;51.630;7.254;2023-07-31T02:10:13;16.57;;;6.40;;
13941;SDS011;7043;51.630;7.254;2023-07-31T02:12:39;10.97;;;6.27;;
13941;SDS011;7043;51.630;7.254;2023-07-31T02:15:05;13.30;;;6.60;;
13941;SDS011;7043;51.630;7.254;2023-07-31T02:17:31;16.33;;;6.97;;
13941;SDS011;7043;51.630;7.254;2023-07-31T02:19:57;17.60;;;7.43;;
13941;SDS011;7043;51.630;7.254;2023-07-31T02:22:23;15.87;;;6.53;;
13941;SDS011;7043;51.630;7.254;2023-07-31T02:24:49;12.87;;;6.47;;
13941;SDS011;7043;51.630;7.254;2023-07-31T02:27:15;14.70;;;6.70;;
13941;SDS011;7043;51.630;7.254;2023-07-31T02:29:41;13.63;;;6.63;;
13941;SDS011;7043;51.630;7.254;2023-07-31T02:32:07;11.37;;;6.03;;
13941;SDS011;7043;51.630;7.254;2023-07-31T02:34:33;12.43;;;6.13;;
13941;SDS011;7043;51.630;7.254;2023-07-31T02:37:00;14.13;;;6.43;;
13941;SDS011;7043;51.630;7.254;2023-07-31T02:39:26;15.73;;;6.47;;
13941;SDS011;7043;51.630;7.254;2023-07-31T02:41:52;14.50;;;6.10;;
13941;SDS011;7043;51.630;7.254;2023-07-31T02:44:17;14.00;;;6.27;;
13941;SDS011;7043;51.630;7.254;2023-07-31T02:46:45;11.37;;;6.00;;
13941;SDS011;7043;51.630;7.254;2023-07-31T02:49:11;15.70;;;6.40;;
13941;SDS011;7043;51.630;7.254;2023-07-31T02:51:37;12.73;;;6.43;;
13941;SDS011;7043;51.630;7.254;2023-07-31T02:54:03;12.70;;;5.63;;
13941;SDS011;7043;51.630;7.254;2023-07-31T02:56:29;10.57;;;5.77;;
13941;SDS011;7043;51.630;7.254;2023-07-31T02:58:55;15.20;;;6.50;;
13941;SDS011;7043;51.630;7.254;2023-07-31T03:01:21;12.20;;;6.27;;
13941;SDS011;7043;51.630;7.254;2023-07-31T03:03:47;13.43;;;6.10;;
13941;SDS011;7043;51.630;7.254;2023-07-31T03:06:13;11.33;;;5.97;;
13941;SDS011;7043;51.630;7.254;2023-07-31T03:08:39;12.37;;;5.80;;
13941;SDS011;7043;51.630;7.254;2023-07-31T03:11:05;10.87;;;5.93;;
13941;SDS011;7043;51.630;7.254;2023-07-31T03:13:31;12.83;;;6.13;;
13941;SDS011;7043;51.630;7.254;2023-07-31T03:15:57;14.97;;;5.77;;
13941;SDS011;7043;51.630;7.254;2023-07-31T03:18:23;11.33;;;5.77;;
13941;SDS011;7043;51.630;7.254;2023-07-31T03:20:49;10.60;;;5.60;;
13941;SDS011;7043;51.630;7.254;2023-07-31T03:23:15;16.37;;;6.43;;
13941;SDS011;7043;51.630;7.254;2023-07-31T03:25:41;14.23;;;5.77;;
13941;SDS011;7043;51.630;7.254;2023-07-31T03:28:21;13.57;;;5.50;;
13941;SDS011;7043;51.630;7.254;2023-07-31T03:30:47;12.97;;;6.03;;
13941;SDS011;7043;51.630;7.254;2023-07-31T03:33:12;15.00;;;6.13;;
13941;SDS011;7043;51.630;7.254;2023-07-31T03:35:38;12.57;;;5.83;;
13941;SDS011;7043;51.630;7.254;2023-07-31T03:38:04;10.30;;;5.53;;
13941;SDS011;7043;51.630;7.254;2023-07-31T03:40:30;12.07;;;6.10;;
13941;SDS011;7043;51.630;7.254;2023-07-31T03:42:56;14.27;;;6.07;;
13941;SDS011;7043;51.630;7.254;2023-07-31T03:45:22;11.50;;;5.13;;
13941;SDS011;7043;51.630;7.254;2023-07-31T03:47:48;11.97;;;5.43;;
13941;SDS011;7043;51.630;7.254;2023-07-31T03:50:14;13.43;;;6.07;;
13941;SDS011;7043;51.630;7.254;2023-07-31T03:52:41;13.63;;;6.27;;
13941;SDS011;7043;51.630;7.254;2023-07-31T03:55:07;11.07;;;5.90;;
13941;SDS011;7043;51.630;7.254;2023-07-31T03:57:33;12.80;;;5.50;;
13941;SDS011;7043;51.630;7.254;2023-07-31T03:59:59;14.00;;;6.70;;
13941;SDS011;7043;51.630;7.254;2023-07-31T04:02:25;14.90;;;6.17;;
13941;SDS011;7043;51.630;7.254;2023-07-31T04:04:51;13.37;;;6.17;;
13941;SDS011;7043;51.630;7.254;2023-07-31T04:07:17;10.37;;;5.83;;
13941;SDS011;7043;51.630;7.254;2023-07-31T04:09:43;12.93;;;5.97;;
13941;SDS011;7043;51.630;7.254;2023-07-31T04:12:09;13.93;;;6.23;;
13941;SDS011;7043;51.630;7.254;2023-07-31T04:14:35;14.87;;;6.73;;
13941;SDS011;7043;51.630;7.254;2023-07-31T04:17:01;12.30;;;5.80;;
13941;SDS011;7043;51.630;7.254;2023-07-31T04:19:27;15.67;;;5.90;;
13941;SDS011;7043;51.630;7.254;2023-07-31T04:21:53;11.10;;;5.47;;
13941;SDS011;7043;51.630;7.254;2023-07-31T04:24:19;11.30;;;5.53;;
13941;SDS011;7043;51.630;7.254;2023-07-31T04:26:49;12.87;;;6.20;;
13941;SDS011;7043;51.630;7.254;2023-07-31T04:29:16;14.00;;;6.40;;
13941;SDS011;7043;51.630;7.254;2023-07-31T04:31:45;13.13;;;6.13;;
13941;SDS011;7043;51.630;7.254;2023-07-31T04:34:11;14.07;;;6.43;;
13941;SDS011;7043;51.630;7.254;2023-07-31T04:36:37;11.67;;;6.13;;
13941;SDS011;7043;51.630;7.254;2023-07-31T04:39:03;13.97;;;5.67;;
13941;SDS011;7043;51.630;7.254;2023-07-31T04:41:29;10.70;;;5.60;;
13941;SDS011;7043;51.630;7.254;2023-07-31T04:43:55;10.03;;;6.20;;
13941;SDS011;7043;51.630;7.254;2023-07-31T04:46:21;11.47;;;6.27;;
13941;SDS011;7043;51.630;7.254;2023-07-31T04:48:47;10.60;;;5.53;;
13941;SDS011;7043;51.630;7.254;2023-07-31T04:51:13;13.50;;;5.70;;
13941;SDS011;7043;51.630;7.254;2023-07-31T04:53:39;12.40;;;5.88;;
13941;SDS011;7043;51.630;7.254;2023-07-31T04:56:05;13.70;;;5.87;;
13941;SDS011;7043;51.630;7.254;2023-07-31T04:58:31;15.13;;;6.23;;
13941;SDS011;7043;51.630;7.254;2023-07-31T05:00:57;9.98;;;5.70;;
13941;SDS011;7043;51.630;7.254;2023-07-31T05:03:23;11.60;;;5.97;;
13941;SDS011;7043;51.630;7.254;2023-07-31T05:05:49;10.43;;;5.40;;
13941;SDS011;7043;51.630;7.254;2023-07-31T05:08:16;12.77;;;6.23;;
13941;SDS011;7043;51.630;7.254;2023-07-31T05:10:45;12.43;;;6.30;;
13941;SDS011;7043;51.630;7.254;2023-07-31T05:13:11;15.30;;;6.60;;
13941;SDS011;7043;51.630;7.254;2023-07-31T05:15:37;13.43;;;6.27;;
13941;SDS011;7043;51.630;7.254;2023-07-31T05:18:04;11.77;;;6.40;;
13941;SDS011;7043;51.630;7.254;2023-07-31T05:20:30;10.00;;;6.50;;
13941;SDS011;7043;51.630;7.254;2023-07-31T05:22:56;13.20;;;7.00;;
13941;SDS011;7043;51.630;7.254;2023-07-31T05:25:21;16.63;;;7.60;;
13941;SDS011;7043;51.630;7.254;2023-07-31T05:27:47;14.73;;;7.37;;
13941;SDS011;7043;51.630;7.254;2023-07-31T05:30:13;12.90;;;6.90;;
13941;SDS011;7043;51.630;7.254;2023-07-31T05:32:39;12.03;;;6.83;;
13941;SDS011;7043;51.630;7.254;2023-07-31T05:35:06;13.30;;;6.80;;
13941;SDS011;7043;51.630;7.254;2023-07-31T05:37:32;10.43;;;6.83;;
13941;SDS011;7043;51.630;7.254;2023-07-31T05:39:58;11.27;;;6.80;;
13941;SDS011;7043;51.630;7.254;2023-07-31T05:42:24;11.53;;;6.77;;
13941;SDS011;7043;51.630;7.254;2023-07-31T05:44:50;13.33;;;7.03;;
13941;SDS011;7043;51.630;7.254;2023-07-31T05:47:16;13.00;;;6.80;;
13941;SDS011;7043;51.630;7.254;2023-07-31T05:49:42;11.83;;;7.10;;
13941;SDS011;7043;51.630;7.254;2023-07-31T05:52:08;16.23;;;7.67;;
13941;SDS011;7043;51.630;7.254;2023-07-31T05:54:34;15.67;;;7.50;;
13941;SDS011;7043;51.630;7.254;2023-07-31T05:57:00;9.20;;;7.60;;
13941;SDS011;7043;51.630;7.254;2023-07-31T05:59:28;10.80;;;8.40;;
13941;SDS011;7043;51.630;7.254;2023-07-31T06:01:56;12.77;;;8.27;;
13941;SDS011;7043;51.630;7.254;2023-07-31T06:04:22;14.73;;;8.03;;
13941;SDS011;7043;51.630;7.254;2023-07-31T06:06:50;11.80;;;8.40;;
13941;SDS011;7043;51.630;7.254;2023-07-31T06:09:17;12.37;;;8.13;;
13941;SDS011;7043;51.630;7.254;2023-07-31T06:11:43;13.13;;;8.87;;
13941;SDS011;7043;51.630;7.254;2023-07-31T06:14:09;14.23;;;9.10;;
13941;SDS011;7043;51.630;7.254;2023-07-31T06:16:35;13.53;;;9.13;;
13941;SDS011;7043;51.630;7.254;2023-07-31T06:19:01;14.53;;;9.73;;
13941;SDS011;7043;51.630;7.254;2023-07-31T06:21:27;13.97;;;9.30;;
13941;SDS011;7043;51.630;7.254;2023-07-31T06:23:54;15.63;;;10.00;;
13941;SDS011;7043;51.630;7.254;2023-07-31T06:26:20;15.43;;;9.83;;
13941;SDS011;7043;51.630;7.254;2023-07-31T06:28:46;15.33;;;9.93;;
13941;SDS011;7043;51.630;7.254;2023-07-31T06:31:13;12.60;;;8.97;;
13941;SDS011;7043;51.630;7.254;2023-07-31T06:33:39;13.60;;;10.30;;
13941;SDS011;7043;51.630;7.254;2023-07-31T06:36:05;14.67;;;9.17;;
13941;SDS011;7043;51.630;7.254;2023-07-31T06:38:31;12.13;;;9.67;;
13941;SDS011;7043;51.630;7.254;2023-07-31T06:40:57;12.97;;;9.00;;
13941;SDS011;7043;51.630;7.254;2023-07-31T06:43:23;15.87;;;9.70;;
13941;SDS011;7043;51.630;7.254;2023-07-31T06:45:49;15.50;;;10.87;;
13941;SDS011;7043;51.630;7.254;2023-07-31T06:48:16;16.13;;;9.67;;
13941;SDS011;7043;51.630;7.254;2023-07-31T06:50:42;14.40;;;9.57;;
13941;SDS011;7043;51.630;7.254;2023-07-31T06:53:08;14.73;;;9.67;;
13941;SDS011;7043;51.630;7.254;2023-07-31T06:55:34;15.40;;;9.73;;
13941;SDS011;7043;51.630;7.254;2023-07-31T06:58:00;16.67;;;9.53;;
13941;SDS011;7043;51.630;7.254;2023-07-31T07:00:26;12.33;;;9.57;;
13941;SDS011;7043;51.630;7.254;2023-07-31T07:02:52;14.70;;;9.53;;
13941;SDS011;7043;51.630;7.254;2023-07-31T07:05:18;11.27;;;9.33;;
13941;SDS011;7043;51.630;7.254;2023-07-31T07:07:45;15.03;;;9.23;;
13941;SDS011;7043;51.630;7.254;2023-07-31T07:10:11;13.10;;;9.33;;
13941;SDS011;7043;51.630;7.254;2023-07-31T07:12:37;15.17;;;9.97;;
13941;SDS011;7043;51.630;7.254;2023-07-31T07:15:04;12.90;;;9.37;;
13941;SDS011;7043;51.630;7.254;2023-07-31T07:17:30;15.23;;;9.10;;
13941;SDS011;7043;51.630;7.254;2023-07-31T07:19:59;13.17;;;8.73;;
13941;SDS011;7043;51.630;7.254;2023-07-31T07:22:25;13.47;;;8.63;;
13941;SDS011;7043;51.630;7.254;2023-07-31T07:24:52;10.77;;;8.43;;
13941;SDS011;7043;51.630;7.254;2023-07-31T07:27:18;9.10;;;7.90;;
13941;SDS011;7043;51.630;7.254;2023-07-31T07:29:45;12.47;;;8.97;;
13941;SDS011;7043;51.630;7.254;2023-07-31T07:32:11;13.37;;;7.97;;
13941;SDS011;7043;51.630;7.254;2023-07-31T07:34:37;12.10;;;7.27;;
13941;SDS011;7043;51.630;7.254;2023-07-31T07:37:03;9.57;;;7.43;;
13941;SDS011;7043;51.630;7.254;2023-07-31T07:39:29;9.33;;;7.17;;
13941;SDS011;7043;51.630;7.254;2023-07-31T07:41:55;10.23;;;7.20;;
13941;SDS011;7043;51.630;7.254;2023-07-31T07:44:21;9.60;;;7.53;;
13941;SDS011;7043;51.630;7.254;2023-07-31T07:46:47;8.23;;;7.40;;
13941;SDS011;7043;51.630;7.254;2023-07-31T07:49:13;9.37;;;7.53;;
13941;SDS011;7043;51.630;7.254;2023-07-31T07:51:39;9.40;;;7.37;;
13941;SDS011;7043;51.630;7.254;2023-07-31T07:54:05;9.83;;;7.27;;
13941;SDS011;7043;51.630;7.254;2023-07-31T07:56:32;8.57;;;6.87;;
13941;SDS011;7043;51.630;7.254;2023-07-31T07:58:58;9.50;;;7.50;;
13941;SDS011;7043;51.630;7.254;2023-07-31T08:01:26;9.33;;;7.40;;
13941;SDS011;7043;51.630;7.254;2023-07-31T08:03:52;9.00;;;6.70;;
13941;SDS011;7043;51.630;7.254;2023-07-31T08:06:18;8.70;;;6.50;;
13941;SDS011;7043;51.630;7.254;2023-07-31T08:08:44;8.37;;;6.47;;
13941;SDS011;7043;51.630;7.254;2023-07-31T08:11:10;8.87;;;6.47;;
13941;SDS011;7043;51.630;7.254;2023-07-31T08:13:36;7.30;;;6.50;;
13941;SDS011;7043;51.630;7.254;2023-07-31T08:16:03;7.83;;;5.60;;
13941;SDS011;7043;51.630;7.254;2023-07-31T08:18:30;7.97;;;5.70;;
13941;SDS011;7043;51.630;7.254;2023-07-31T08:20:58;7.63;;;6.00;;
13941;SDS011;7043;51.630;7.254;2023-07-31T08:23:24;9.17;;;5.87;;
13941;SDS011;7043;51.630;7.254;2023-07-31T08:25:50;6.20;;;5.33;;
13941;SDS011;7043;51.630;7.254;2023-07-31T08:28:16;6.63;;;5.03;;
13941;SDS011;7043;51.630;7.254;2023-07-31T08:30:42;8.27;;;4.73;;
13941;SDS011;7043;51.630;7.254;2023-07-31T08:33:08;9.47;;;5.57;;
13941;SDS011;7043;51.630;7.254;2023-07-31T08:35:34;7.57;;;5.07;;
13941;SDS011;7043;51.630;7.254;2023-07-31T08:38:01;6.20;;;4.90;;
13941;SDS011;7043;51.630;7.254;2023-07-31T08:40:28;6.07;;;4.77;;
13941;SDS011;7043;51.630;7.254;2023-07-31T08:42:54;5.23;;;4.30;;
13941;SDS011;7043;51.630;7.254;2023-07-31T08:45:27;5.17;;;3.73;;
13941;SDS011;7043;51.630;7.254;2023-07-31T08:47:53;4.67;;;3.60;;
13941;SDS011;7043;51.630;7.254;2023-07-31T08:50:21;6.43;;;4.03;;
13941;SDS011;7043;51.630;7.254;2023-07-31T08:53:06;6.67;;;4.67;;
13941;SDS011;7043;51.630;7.254;2023-07-31T08:55:32;6.53;;;3.90;;
13941;SDS011;7043;51.630;7.254;2023-07-31T08:57:58;5.17;;;4.00;;
13941;SDS011;7043;51.630;7.254;2023-07-31T09:00:25;5.43;;;4.00;;
13941;SDS011;7043;51.630;7.254;2023-07-31T09:02:56;5.87;;;3.93;;
13941;SDS011;7043;51.630;7.254;2023-07-31T09:05:23;6.70;;;4.47;;
13941;SDS011;7043;51.630;7.254;2023-07-31T09:07:49;5.73;;;4.20;;
13941;SDS011;7043;51.630;7.254;2023-07-31T09:10:15;5.13;;;4.03;;
13941;SDS011;7043;51.630;7.254;2023-07-31T09:12:41;5.60;;;4.27;;
13941;SDS011;7043;51.630;7.254;2023-07-31T09:15:08;7.27;;;4.40;;
13941;SDS011;7043;51.630;7.254;2023-07-31T09:17:35;5.63;;;4.93;;
13941;SDS011;7043;51.630;7.254;2023-07-31T09:22:39;7.10;;;3.67;;
13941;SDS011;7043;51.630;7.254;2023-07-31T09:25:15;5.93;;;4.60;;
13941;SDS011;7043;51.630;7.254;2023-07-31T09:27:54;5.23;;;3.90;;
13941;SDS011;7043;51.630;7.254;2023-07-31T09:30:21;5.33;;;4.00;;
13941;SDS011;7043;51.630;7.254;2023-07-31T09:32:47;5.03;;;3.60;;
13941;SDS011;7043;51.630;7.254;2023-07-31T09:35:29;4.93;;;4.17;;
13941;SDS011;7043;51.630;7.254;2023-07-31T09:38:06;4.70;;;3.23;;
13941;SDS011;7043;51.630;7.254;2023-07-31T09:40:33;4.03;;;3.43;;
13941;SDS011;7043;51.630;7.254;2023-07-31T09:43:00;4.27;;;3.53;;
13941;SDS011;7043;51.630;7.254;2023-07-31T09:45:27;4.50;;;3.70;;
13941;SDS011;7043;51.630;7.254;2023-07-31T09:47:53;6.37;;;4.10;;
13941;SDS011;7043;51.630;7.254;2023-07-31T09:50:20;4.33;;;3.20;;
13941;SDS011;7043;51.630;7.254;2023-07-31T09:52:46;4.37;;;3.03;;
13941;SDS011;7043;51.630;7.254;2023-07-31T09:55:12;4.20;;;3.20;;
13941;SDS011;7043;51.630;7.254;2023-07-31T09:57:40;5.17;;;3.00;;
13941;SDS011;7043;51.630;7.254;2023-07-31T10:00:08;4.40;;;3.30;;
13941;SDS011;7043;51.630;7.254;2023-07-31T10:02:34;3.30;;;2.67;;
13941;SDS011;7043;51.630;7.254;2023-07-31T10:05:02;3.00;;;2.70;;
13941;SDS011;7043;51.630;7.254;2023-07-31T10:07:29;3.73;;;3.40;;
13941;SDS011;7043;51.630;7.254;2023-07-31T10:09:57;3.97;;;3.27;;
13941;SDS011;7043;51.630;7.254;2023-07-31T10:12:24;3.77;;;2.87;;
13941;SDS011;7043;51.630;7.254;2023-07-31T10:14:53;3.07;;;2.77;;
13941;SDS011;7043;51.630;7.254;2023-07-31T10:17:19;3.57;;;3.10;;
13941;SDS011;7043;51.630;7.254;2023-07-31T10:19:46;3.90;;;3.40;;
13941;SDS011;7043;51.630;7.254;2023-07-31T10:22:14;4.63;;;2.97;;
13941;SDS011;7043;51.630;7.254;2023-07-31T10:24:40;4.73;;;3.27;;
13941;SDS011;7043;51.630;7.254;2023-07-31T10:27:08;4.13;;;3.53;;
13941;SDS011;7043;51.630;7.254;2023-07-31T10:29:35;3.30;;;3.00;;
13941;SDS011;7043;51.630;7.254;2023-07-31T10:32:02;3.50;;;3.20;;
13941;SDS011;7043;51.630;7.254;2023-07-31T10:34:33;3.53;;;3.23;;
13941;SDS011;7043;51.630;7.254;2023-07-31T10:39:44;3.30;;;3.00;;
13941;SDS011;7043;51.630;7.254;2023-07-31T10:42:20;3.00;;;2.70;;
13941;SDS011;7043;51.630;7.254;2023-07-31T10:44:52;3.43;;;2.87;;
13941;SDS011;7043;51.630;7.254;2023-07-31T10:47:20;4.27;;;3.80;;
13941;SDS011;7043;51.630;7.254;2023-07-31T10:49:46;3.92;;;3.28;;
13941;SDS011;7043;51.630;7.254;2023-07-31T10:52:13;4.13;;;3.60;;
13941;SDS011;7043;51.630;7.254;2023-07-31T10:54:39;5.27;;;4.77;;
13941;SDS011;7043;51.630;7.254;2023-07-31T10:57:21;6.03;;;5.47;;
13941;SDS011;7043;51.630;7.254;2023-07-31T10:59:49;6.27;;;5.67;;
13941;SDS011;7043;51.630;7.254;2023-07-31T11:02:25;8.37;;;6.80;;
13941;SDS011;7043;51.630;7.254;2023-07-31T11:05:10;8.43;;;7.07;;
13941;SDS011;7043;51.630;7.254;2023-07-31T11:07:46;8.53;;;7.63;;
13941;SDS011;7043;51.630;7.254;2023-07-31T11:10:14;9.00;;;8.00;;
13941;SDS011;7043;51.630;7.254;2023-07-31T11:12:41;10.00;;;9.10;;
13941;SDS011;7043;51.630;7.254;2023-07-31T11:15:07;10.88;;;9.77;;
13941;SDS011;7043;51.630;7.254;2023-07-31T11:17:37;11.37;;;10.27;;
13941;SDS011;7043;51.630;7.254;2023-07-31T11:20:04;11.87;;;10.13;;
13941;SDS011;7043;51.630;7.254;2023-07-31T11:22:30;11.03;;;9.93;;
13941;SDS011;7043;51.630;7.254;2023-07-31T11:24:56;11.20;;;10.00;;
13941;SDS011;7043;51.630;7.254;2023-07-31T11:27:22;11.45;;;10.35;;
13941;SDS011;7043;51.630;7.254;2023-07-31T11:29:50;13.10;;;10.70;;
13941;SDS011;7043;51.630;7.254;2023-07-31T11:32:16;12.63;;;11.10;;
13941;SDS011;7043;51.630;7.254;2023-07-31T11:34:52;10.88;;;9.77;;
13941;SDS011;7043;51.630;7.254;2023-07-31T11:37:18;10.70;;;9.13;;
13941;SDS011;7043;51.630;7.254;2023-07-31T11:39:58;10.97;;;8.83;;
13941;SDS011;7043;51.630;7.254;2023-07-31T11:42:24;11.67;;;9.67;;
13941;SDS011;7043;51.630;7.254;2023-07-31T11:44:50;9.80;;;8.73;;
13941;SDS011;7043;51.630;7.254;2023-07-31T11:47:16;10.27;;;8.17;;
13941;SDS011;7043;51.630;7.254;2023-07-31T11:49:45;9.00;;;8.00;;
13941;SDS011;7043;51.630;7.254;2023-07-31T11:52:11;9.40;;;8.30;;
13941;SDS011;7043;51.630;7.254;2023-07-31T11:54:39;8.17;;;7.23;;
13941;SDS011;7043;51.630;7.254;2023-07-31T11:57:06;8.93;;;7.23;;
13941;SDS011;7043;51.630;7.254;2023-07-31T11:59:32;10.23;;;8.03;;
13941;SDS011;7043;51.630;7.254;2023-07-31T12:01:58;8.07;;;6.93;;
13941;SDS011;7043;51.630;7.254;2023-07-31T12:04:25;9.20;;;7.10;;
13941;SDS011;7043;51.630;7.254;2023-07-31T12:06:52;7.70;;;6.90;;
13941;SDS011;7043;51.630;7.254;2023-07-31T12:09:18;8.63;;;7.30;;
13941;SDS011;7043;51.630;7.254;2023-07-31T12:11:45;7.47;;;6.47;;
13941;SDS011;7043;51.630;7.254;2023-07-31T12:14:21;8.65;;;7.28;;
13941;SDS011;7043;51.630;7.254;2023-07-31T12:16:47;9.38;;;6.93;;
13941;SDS011;7043;51.630;7.254;2023-07-31T12:19:13;10.20;;;6.90;;
13941;SDS011;7043;51.630;7.254;2023-07-31T12:21:39;7.67;;;6.80;;
13941;SDS011;7043;51.630;7.254;2023-07-31T12:24:05;9.33;;;7.13;;
13941;SDS011;7043;51.630;7.254;2023-07-31T12:26:35;9.93;;;7.30;;
13941;SDS011;7043;51.630;7.254;2023-07-31T12:29:00;8.13;;;7.00;;
13941;SDS011;7043;51.630;7.254;2023-07-31T12:31:27;7.90;;;6.90;;
13941;SDS011;7043;51.630;7.254;2023-07-31T12:33:55;7.63;;;6.93;;
13941;SDS011;7043;51.630;7.254;2023-07-31T12:36:22;8.13;;;7.43;;
13941;SDS011;7043;51.630;7.254;2023-07-31T12:38:52;8.37;;;7.57;;
13941;SDS011;7043;51.630;7.254;2023-07-31T12:41:18;10.00;;;7.97;;
13941;SDS011;7043;51.630;7.254;2023-07-31T12:43:47;8.83;;;7.50;;
13941;SDS011;7043;51.630;7.254;2023-07-31T12:46:13;8.80;;;7.90;;
13941;SDS011;7043;51.630;7.254;2023-07-31T12:48:39;9.37;;;8.57;;
13941;SDS011;7043;51.630;7.254;2023-07-31T12:51:05;9.85;;;8.85;;
13941;SDS011;7043;51.630;7.254;2023-07-31T12:53:32;8.93;;;8.10;;
13941;SDS011;7043;51.630;7.254;2023-07-31T12:55:58;9.37;;;8.47;;
13941;SDS011;7043;51.630;7.254;2023-07-31T12:58:24;10.47;;;8.30;;
13941;SDS011;7043;51.630;7.254;2023-07-31T13:00:50;9.83;;;8.30;;
13941;SDS011;7043;51.630;7.254;2023-07-31T13:03:16;9.43;;;8.43;;
13941;SDS011;7043;51.630;7.254;2023-07-31T13:05:42;8.77;;;7.90;;
13941;SDS011;7043;51.630;7.254;2023-07-31T13:08:08;8.45;;;7.65;;
13941;SDS011;7043;51.630;7.254;2023-07-31T13:10:34;8.87;;;7.87;;
13941;SDS011;7043;51.630;7.254;2023-07-31T13:13:00;8.80;;;7.00;;
13941;SDS011;7043;51.630;7.254;2023-07-31T13:15:28;8.15;;;7.40;;
13941;SDS011;7043;51.630;7.254;2023-07-31T13:17:54;7.00;;;5.72;;
13941;SDS011;7043;51.630;7.254;2023-07-31T13:20:20;6.18;;;5.57;;
13941;SDS011;7043;51.630;7.254;2023-07-31T13:22:46;5.43;;;4.93;;
13941;SDS011;7043;51.630;7.254;2023-07-31T13:25:12;6.20;;;4.65;;
13941;SDS011;7043;51.630;7.254;2023-07-31T13:27:38;5.93;;;4.53;;
13941;SDS011;7043;51.630;7.254;2023-07-31T13:30:04;8.10;;;4.85;;
13941;SDS011;7043;51.630;7.254;2023-07-31T13:32:30;5.30;;;4.78;;
13941;SDS011;7043;51.630;7.254;2023-07-31T13:34:57;5.80;;;5.20;;
13941;SDS011;7043;51.630;7.254;2023-07-31T13:37:22;6.18;;;5.68;;
13941;SDS011;7043;51.630;7.254;2023-07-31T13:39:50;7.07;;;4.95;;
13941;SDS011;7043;51.630;7.254;2023-07-31T13:42:16;5.70;;;5.13;;
13941;SDS011;7043;51.630;7.254;2023-07-31T13:44:42;5.60;;;5.10;;
13941;SDS011;7043;51.630;7.254;2023-07-31T13:47:08;5.80;;;5.20;;
13941;SDS011;7043;51.630;7.254;2023-07-31T13:49:34;7.73;;;5.20;;
13941;SDS011;7043;51.630;7.254;2023-07-31T13:52:01;6.60;;;6.00;;
13941;SDS011;7043;51.630;7.254;2023-07-31T13:54:28;6.78;;;6.00;;
13941;SDS011;7043;51.630;7.254;2023-07-31T13:56:54;7.20;;;6.47;;
13941;SDS011;7043;51.630;7.254;2023-07-31T13:59:20;8.30;;;6.47;;
13941;SDS011;7043;51.630;7.254;2023-07-31T14:01:46;6.82;;;6.00;;
13941;SDS011;7043;51.630;7.254;2023-07-31T14:04:13;5.83;;;5.00;;
13941;SDS011;7043;51.630;7.254;2023-07-31T14:06:39;5.60;;;5.07;;
13941;SDS011;7043;51.630;7.254;2023-07-31T14:09:05;5.40;;;4.53;;
13941;SDS011;7043;51.630;7.254;2023-07-31T14:11:33;5.60;;;4.07;;
13941;SDS011;7043;51.630;7.254;2023-07-31T14:13:59;6.05;;;4.13;;
13941;SDS011;7043;51.630;7.254;2023-07-31T14:16:27;4.85;;;4.05;;
13941;SDS011;7043;51.630;7.254;2023-07-31T14:18:53;5.97;;;4.28;;
13941;SDS011;7043;51.630;7.254;2023-07-31T14:21:20;6.80;;;4.13;;
13941;SDS011;7043;51.630;7.254;2023-07-31T14:23:46;4.78;;;3.70;;
13941;SDS011;7043;51.630;7.254;2023-07-31T14:26:12;6.05;;;4.53;;
13941;SDS011;7043;51.630;7.254;2023-07-31T14:28:38;7.15;;;4.38;;
13941;SDS011;7043;51.630;7.254;2023-07-31T14:31:04;6.18;;;4.70;;
13941;SDS011;7043;51.630;7.254;2023-07-31T14:33:31;5.15;;;4.65;;
13941;SDS011;7043;51.630;7.254;2023-07-31T14:35:57;7.82;;;5.15;;
13941;SDS011;7043;51.630;7.254;2023-07-31T14:38:23;5.28;;;4.75;;
13941;SDS011;7043;51.630;7.254;2023-07-31T14:40:49;6.72;;;4.80;;
13941;SDS011;7043;51.630;7.254;2023-07-31T14:43:15;5.78;;;4.65;;
13941;SDS011;7043;51.630;7.254;2023-07-31T14:45:41;5.25;;;4.72;;
13941;SDS011;7043;51.630;7.254;2023-07-31T14:48:07;5.97;;;5.07;;
13941;SDS011;7043;51.630;7.254;2023-07-31T14:50:33;5.32;;;4.82;;
13941;SDS011;7043;51.630;7.254;2023-07-31T14:52:59;6.20;;;5.05;;
13941;SDS011;7043;51.630;7.254;2023-07-31T14:55:25;5.60;;;4.32;;
13941;SDS011;7043;51.630;7.254;2023-07-31T14:57:51;6.93;;;4.78;;
13941;SDS011;7043;51.630;7.254;2023-07-31T15:00:17;7.18;;;4.82;;
13941;SDS011;7043;51.630;7.254;2023-07-31T15:02:43;7.05;;;4.85;;